Time;durP1;ratioP1;P1;durP2;ratioP2;P2;SDS_P1;SDS_P2;PMS_P1;PMS_P2;Temp;Humidity;BMP_temperature;BMP_pressure;BME280_temperature;BME280_humidity;BME280_pressure;Samples;Min_cycle;Max_cycle;Signal;HPM_P1;HPM_P2
2023/01/04 00:00:33;;;;;;;5.43;1.42;;;;;;;;;;5061631;28;20507;-77
2023/01/04 00:02:58;;;;;;;3.65;1.55;;;;;;;;;;5067427;28;20162;-77
2023/01/04 00:05:24;;;;;;;3.75;2.10;;;;;;;;;;5060937;28;20051;-77
2023/01/04 00:07:49;;;;;;;4.10;1.42;;;;;;;;;;5056657;28;20089;-77
2023/01/04 00:10:15;;;;;;;5.70;1.90;;;;;;;;;;5058346;28;20040;-77
2023/01/04 00:12:40;;;;;;;4.90;1.65;;;;;;;;;;5055456;28;20488;-77
2023/01/04 00:15:06;;;;;;;4.05;1.58;;;;;;;;;;5066594;28;20024;-77
2023/01/04 00:17:32;;;;;;;3.80;1.45;;;;;;;;;;5062133;28;20036;-77
2023/01/04 00:19:57;;;;;;;4.28;1.58;;;;;;;;;;5059046;28;20107;-77
2023/01/04 00:22:23;;;;;;;7.72;1.70;;;;;;;;;;5062542;28;20027;-77
2023/01/04 00:24:48;;;;;;;5.00;1.52;;;;;;;;;;5068786;28;22110;-77
2023/01/04 00:27:13;;;;;;;6.25;1.80;;;;;;;;;;5070581;28;20024;-77
2023/01/04 00:29:39;;;;;;;4.95;1.75;;;;;;;;;;5065266;28;20035;-77
2023/01/04 00:32:04;;;;;;;7.40;1.70;;;;;;;;;;5065053;28;20499;-77
2023/01/04 00:34:29;;;;;;;3.72;1.77;;;;;;;;;;5063756;28;20055;-77
2023/01/04 00:36:55;;;;;;;8.07;1.80;;;;;;;;;;5065312;28;20033;-78
2023/01/04 00:39:20;;;;;;;3.35;1.95;;;;;;;;;;5062869;28;20035;-77
2023/01/04 00:41:47;;;;;;;3.88;1.58;;;;;;;;;;5064095;28;20033;-77
2023/01/04 00:44:14;;;;;;;7.18;1.75;;;;;;;;;;5064584;28;20178;-77
2023/01/04 00:46:40;;;;;;;3.47;1.80;;;;;;;;;;5068640;28;20392;-77
2023/01/04 00:49:07;;;;;;;4.90;1.85;;;;;;;;;;5067472;28;20021;-77
2023/01/04 00:51:35;;;;;;;6.95;1.50;;;;;;;;;;5065019;28;20035;-77
2023/01/04 00:54:01;;;;;;;4.65;1.73;;;;;;;;;;5065519;28;20032;-77
2023/01/04 00:56:28;;;;;;;4.72;1.63;;;;;;;;;;5066950;28;20476;-77
2023/01/04 00:58:59;;;;;;;6.20;1.77;;;;;;;;;;5083269;28;20124;-77
2023/01/04 01:01:27;;;;;;;6.57;1.92;;;;;;;;;;5060203;28;20024;-77
2023/01/04 01:03:56;;;;;;;5.28;1.48;;;;;;;;;;5066899;28;20490;-77
2023/01/04 01:06:23;;;;;;;4.13;1.60;;;;;;;;;;5064087;28;20480;-77
2023/01/04 01:08:49;;;;;;;5.55;1.52;;;;;;;;;;5057785;28;20035;-77
2023/01/04 01:11:15;;;;;;;3.30;1.30;;;;;;;;;;5065102;28;20534;-77
2023/01/04 01:13:40;;;;;;;3.38;1.30;;;;;;;;;;5063100;28;20029;-77
2023/01/04 01:16:12;;;;;;;3.80;1.33;;;;;;;;;;5057165;28;20056;-77
2023/01/04 01:18:39;;;;;;;3.70;1.60;;;;;;;;;;5067209;28;20500;-77
2023/01/04 01:21:06;;;;;;;3.92;1.40;;;;;;;;;;5063092;28;20067;-76
2023/01/04 01:23:31;;;;;;;3.70;1.27;;;;;;;;;;5059588;28;20045;-77
2023/01/04 01:26:05;;;;;;;2.70;1.35;;;;;;;;;;5063386;28;20355;-77
2023/01/04 01:28:30;;;;;;;3.00;1.20;;;;;;;;;;5055470;28;20040;-77
2023/01/04 01:30:58;;;;;;;4.20;1.40;;;;;;;;;;5063522;28;20047;-77
2023/01/04 01:33:25;;;;;;;2.22;1.23;;;;;;;;;;5054443;28;20438;-77
2023/01/04 01:35:50;;;;;;;2.53;0.93;;;;;;;;;;5059047;28;20423;-76
2023/01/04 01:38:16;;;;;;;2.90;1.08;;;;;;;;;;5060692;28;20040;-77
2023/01/04 01:40:42;;;;;;;2.25;1.17;;;;;;;;;;5065402;28;20384;-77
2023/01/04 01:43:18;;;;;;;2.45;1.10;;;;;;;;;;5059314;28;20482;-77
2023/01/04 01:45:46;;;;;;;2.60;1.30;;;;;;;;;;5060074;28;20029;-77
2023/01/04 01:48:17;;;;;;;3.53;1.75;;;;;;;;;;5062159;28;20035;-77
2023/01/04 01:51:02;;;;;;;1.67;1.00;;;;;;;;;;5068704;28;20480;-77
2023/01/04 01:53:33;;;;;;;3.22;1.00;;;;;;;;;;5065095;28;20036;-77
2023/01/04 01:55:59;;;;;;;4.53;1.42;;;;;;;;;;5066051;28;20389;-77
2023/01/04 01:58:33;;;;;;;1.65;1.00;;;;;;;;;;5058019;28;20041;-77
2023/01/04 02:00:59;;;;;;;2.65;1.20;;;;;;;;;;5060594;28;20484;-77
2023/01/04 02:03:36;;;;;;;2.08;1.10;;;;;;;;;;5060821;28;20115;-77
2023/01/04 02:06:04;;;;;;;2.20;1.20;;;;;;;;;;5067953;28;20050;-77
2023/01/04 02:08:29;;;;;;;2.97;1.00;;;;;;;;;;5077104;28;20024;-77
2023/01/04 02:10:55;;;;;;;1.85;1.30;;;;;;;;;;5064672;28;20165;-77
2023/01/04 02:14:25;;;;;;;2.80;1.10;;;;;;;;;;5062123;28;20484;-77
2023/01/04 02:16:33;;;;;;;3.70;1.25;;;;;;;;;;5064195;28;20040;-77
2023/01/04 02:19:33;;;;;;;1.83;1.10;;;;;;;;;;5057268;28;20059;-76
2023/01/04 02:22:13;;;;;;;2.33;1.33;;;;;;;;;;5060173;28;20028;-77
2023/01/04 02:24:49;;;;;;;4.05;1.30;;;;;;;;;;5062510;28;20037;-77
2023/01/04 02:27:20;;;;;;;2.00;1.08;;;;;;;;;;5061561;28;20127;-77
2023/01/04 02:30:08;;;;;;;2.67;1.25;;;;;;;;;;5057584;28;20074;-76
2023/01/04 02:32:52;;;;;;;4.75;1.40;;;;;;;;;;5065038;28;20078;-77
2023/01/04 02:35:31;;;;;;;3.53;1.30;;;;;;;;;;5066784;28;20028;-77
2023/01/04 02:38:12;;;;;;;2.58;1.10;;;;;;;;;;5076564;28;20669;-77
2023/01/04 02:41:03;;;;;;;1.63;0.98;;;;;;;;;;5065776;28;20032;-77
2023/01/04 02:46:38;;;;;;;2.10;1.30;;;;;;;;;;5068045;28;20047;-77
2023/01/04 02:51:48;;;;;;;2.05;1.20;;;;;;;;;;5061434;28;20078;-77
2023/01/04 02:54:19;;;;;;;2.15;1.20;;;;;;;;;;5061504;28;20024;-77
2023/01/04 02:57:21;;;;;;;2.05;1.27;;;;;;;;;;5064369;28;20383;-77
2023/01/04 02:59:49;;;;;;;2.03;1.20;;;;;;;;;;5061204;28;20021;-77
2023/01/04 03:08:35;;;;;;;3.28;1.30;;;;;;;;;;5063436;28;20059;-77
2023/01/04 03:14:01;;;;;;;2.22;1.20;;;;;;;;;;5062446;28;20376;-77
2023/01/04 03:16:29;;;;;;;3.15;1.08;;;;;;;;;;5067982;28;20028;-77
2023/01/04 03:18:57;;;;;;;2.25;1.20;;;;;;;;;;5066146;28;20029;-77
2023/01/04 03:21:25;;;;;;;1.80;1.08;;;;;;;;;;5069193;28;20028;-77
2023/01/04 03:36:06;;;;;;;1.80;1.20;;;;;;;;;;5063294;28;20288;-76
2023/01/04 03:50:25;;;;;;;2.33;1.40;;;;;;;;;;5060835;28;20119;-77
2023/01/04 03:52:52;;;;;;;2.40;1.55;;;;;;;;;;5061583;28;20110;-78
2023/01/04 03:55:18;;;;;;;2.45;1.50;;;;;;;;;;5070695;28;20036;-77
2023/01/04 03:57:45;;;;;;;2.58;1.60;;;;;;;;;;5060165;28;20043;-77
2023/01/04 04:00:14;;;;;;;3.33;1.70;;;;;;;;;;5060114;28;20028;-77
2023/01/04 04:02:40;;;;;;;3.08;1.90;;;;;;;;;;5063494;28;20553;-77
2023/01/04 04:10:34;;;;;;;2.60;1.80;;;;;;;;;;5063748;28;20039;-77
2023/01/04 04:13:00;;;;;;;5.60;1.92;;;;;;;;;;5064791;28;20436;-76
2023/01/04 04:15:25;;;;;;;3.03;1.88;;;;;;;;;;5062332;28;20435;-77
2023/01/04 04:17:50;;;;;;;3.15;1.95;;;;;;;;;;5060403;28;20035;-77
2023/01/04 04:20:16;;;;;;;3.10;1.73;;;;;;;;;;5062310;28;20078;-77
2023/01/04 04:22:42;;;;;;;3.20;1.70;;;;;;;;;;5061082;28;20424;-77
2023/01/04 04:25:07;;;;;;;2.50;1.65;;;;;;;;;;5060577;28;20032;-77
2023/01/04 04:27:33;;;;;;;2.90;1.85;;;;;;;;;;5064690;28;20921;-77
2023/01/04 04:29:58;;;;;;;3.00;2.00;;;;;;;;;;5063763;28;20056;-77
2023/01/04 04:32:24;;;;;;;3.08;1.50;;;;;;;;;;5066104;28;20016;-77
2023/01/04 04:34:49;;;;;;;3.85;2.10;;;;;;;;;;5075670;28;20020;-77
2023/01/04 04:37:14;;;;;;;3.97;2.13;;;;;;;;;;5063118;28;20069;-77
2023/01/04 04:39:40;;;;;;;3.72;2.00;;;;;;;;;;5063206;28;20028;-77
2023/01/04 04:42:05;;;;;;;3.53;1.90;;;;;;;;;;5060943;28;20024;-77
2023/01/04 04:44:33;;;;;;;4.47;1.92;;;;;;;;;;5065077;28;20437;-77
2023/01/04 04:46:58;;;;;;;2.80;2.05;;;;;;;;;;5063137;28;20074;-77
2023/01/04 04:49:24;;;;;;;3.20;2.15;;;;;;;;;;5064136;28;20033;-77
2023/01/04 04:51:49;;;;;;;2.90;2.00;;;;;;;;;;5064169;28;20021;-77
2023/01/04 04:54:17;;;;;;;2.75;1.70;;;;;;;;;;5064670;28;20043;-77
2023/01/04 04:56:42;;;;;;;2.70;1.90;;;;;;;;;;5062500;28;20032;-77
2023/01/04 04:59:07;;;;;;;3.00;1.80;;;;;;;;;;5058801;28;20453;-77
2023/01/04 05:01:33;;;;;;;3.95;2.67;;;;;;;;;;5064867;28;20032;-77
2023/01/04 05:03:58;;;;;;;3.08;2.20;;;;;;;;;;5067130;28;20067;-77
2023/01/04 05:06:24;;;;;;;4.13;2.13;;;;;;;;;;5062399;28;20094;-77
2023/01/04 05:08:49;;;;;;;3.05;2.20;;;;;;;;;;5056321;28;20427;-76
2023/01/04 05:11:14;;;;;;;5.93;2.33;;;;;;;;;;5059055;28;20029;-77
2023/01/04 05:13:40;;;;;;;4.10;2.10;;;;;;;;;;5064533;28;20033;-77
2023/01/04 05:16:07;;;;;;;3.53;2.38;;;;;;;;;;5063511;28;20405;-77
2023/01/04 05:18:33;;;;;;;3.40;2.20;;;;;;;;;;5062997;28;20041;-77
2023/01/04 05:20:58;;;;;;;3.78;2.20;;;;;;;;;;5064615;28;20438;-77
2023/01/04 05:23:24;;;;;;;5.05;2.30;;;;;;;;;;5064645;28;20028;-77
2023/01/04 05:25:57;;;;;;;3.10;2.20;;;;;;;;;;5065945;28;20051;-77
2023/01/04 05:28:23;;;;;;;2.85;2.03;;;;;;;;;;5063199;28;20028;-77
2023/01/04 05:30:49;;;;;;;4.13;2.15;;;;;;;;;;5067760;28;20048;-77
2023/01/04 05:33:24;;;;;;;3.05;1.83;;;;;;;;;;5061986;28;20023;-77
2023/01/04 05:35:50;;;;;;;4.68;2.03;;;;;;;;;;5065088;28;20103;-77
2023/01/04 05:38:16;;;;;;;2.97;1.80;;;;;;;;;;5062767;28;20028;-77
2023/01/04 05:40:41;;;;;;;3.05;1.70;;;;;;;;;;5061228;28;20025;-77
2023/01/04 05:43:07;;;;;;;5.47;1.90;;;;;;;;;;5058387;28;20040;-77
2023/01/04 05:45:32;;;;;;;4.03;1.90;;;;;;;;;;5061161;28;20056;-77
2023/01/04 05:47:58;;;;;;;3.60;1.85;;;;;;;;;;5060507;28;20054;-77
2023/01/04 05:50:23;;;;;;;6.28;1.80;;;;;;;;;;5061040;28;20028;-77
2023/01/04 05:52:49;;;;;;;2.38;1.50;;;;;;;;;;5058628;28;20063;-77
2023/01/04 05:55:15;;;;;;;3.30;1.70;;;;;;;;;;5062755;28;20054;-77
2023/01/04 05:57:40;;;;;;;2.95;1.90;;;;;;;;;;5060746;28;20073;-76
2023/01/04 06:00:07;;;;;;;3.47;2.00;;;;;;;;;;5065706;28;20021;-77
2023/01/04 06:02:33;;;;;;;3.33;1.83;;;;;;;;;;5056026;28;20020;-76
2023/01/04 06:04:59;;;;;;;3.33;2.00;;;;;;;;;;5062138;28;20036;-77
2023/01/04 06:07:25;;;;;;;5.30;2.20;;;;;;;;;;5073017;28;20472;-77
2023/01/04 06:09:50;;;;;;;3.78;1.92;;;;;;;;;;5059872;28;20028;-77
2023/01/04 06:12:16;;;;;;;3.40;2.03;;;;;;;;;;5071143;28;20024;-77
2023/01/04 06:14:41;;;;;;;2.60;1.83;;;;;;;;;;5060575;28;20024;-77
2023/01/04 06:17:07;;;;;;;4.97;1.95;;;;;;;;;;5064499;28;20036;-77
2023/01/04 06:19:33;;;;;;;3.20;2.10;;;;;;;;;;5066665;28;20045;-77
2023/01/04 06:21:59;;;;;;;2.80;1.85;;;;;;;;;;5069039;28;20123;-77
2023/01/04 06:24:25;;;;;;;3.75;2.00;;;;;;;;;;5067629;28;20127;-77
2023/01/04 06:26:50;;;;;;;3.03;2.13;;;;;;;;;;5067724;28;20604;-77
2023/01/04 06:29:15;;;;;;;6.55;1.92;;;;;;;;;;5061151;28;20489;-77
2023/01/04 06:31:41;;;;;;;3.20;1.73;;;;;;;;;;5062777;28;20093;-77
2023/01/04 06:34:06;;;;;;;2.58;1.83;;;;;;;;;;5064015;28;20096;-77
2023/01/04 06:36:32;;;;;;;3.90;1.80;;;;;;;;;;5057089;28;20533;-77
2023/01/04 06:38:59;;;;;;;2.42;1.70;;;;;;;;;;5068539;28;20126;-77
2023/01/04 06:41:25;;;;;;;2.72;1.70;;;;;;;;;;5057707;28;20055;-77
2023/01/04 06:43:50;;;;;;;3.42;1.70;;;;;;;;;;5063741;28;20119;-77
2023/01/04 06:46:16;;;;;;;3.28;1.60;;;;;;;;;;5061461;28;20111;-77
2023/01/04 06:48:42;;;;;;;3.65;1.75;;;;;;;;;;5069018;28;20020;-77
2023/01/04 06:51:07;;;;;;;3.30;1.70;;;;;;;;;;5063717;28;20028;-77
2023/01/04 06:53:33;;;;;;;4.68;1.80;;;;;;;;;;5064954;28;20016;-77
2023/01/04 06:55:58;;;;;;;4.25;1.77;;;;;;;;;;5062847;28;20060;-77
2023/01/04 06:58:23;;;;;;;4.00;1.80;;;;;;;;;;5064434;28;20023;-76
2023/01/04 07:00:53;;;;;;;2.25;1.67;;;;;;;;;;5059331;28;20028;-77
2023/01/04 07:03:19;;;;;;;5.05;1.92;;;;;;;;;;5062090;28;20028;-77
2023/01/04 07:05:44;;;;;;;3.60;1.45;;;;;;;;;;5064243;28;20111;-77
2023/01/04 07:08:11;;;;;;;3.50;1.73;;;;;;;;;;5060391;28;20036;-77
2023/01/04 07:10:37;;;;;;;2.17;1.60;;;;;;;;;;5064881;28;20518;-76
2023/01/04 07:13:03;;;;;;;4.43;1.85;;;;;;;;;;5066768;28;20020;-77
2023/01/04 07:15:29;;;;;;;4.47;1.70;;;;;;;;;;5063507;28;20024;-77
2023/01/04 07:17:54;;;;;;;3.42;1.60;;;;;;;;;;5058658;28;20029;-77
2023/01/04 07:20:19;;;;;;;5.47;1.80;;;;;;;;;;5064979;28;20032;-77
2023/01/04 07:22:45;;;;;;;3.45;1.50;;;;;;;;;;5064584;28;20036;-77
2023/01/04 07:25:10;;;;;;;2.83;2.00;;;;;;;;;;5070325;28;20028;-77
2023/01/04 07:27:35;;;;;;;3.92;1.67;;;;;;;;;;5060245;28;20369;-77
2023/01/04 07:30:01;;;;;;;2.83;1.90;;;;;;;;;;5058992;28;20052;-77
2023/01/04 07:32:27;;;;;;;3.28;1.55;;;;;;;;;;5059480;28;20025;-76
2023/01/04 07:34:52;;;;;;;3.53;1.58;;;;;;;;;;5060126;28;20036;-77
2023/01/04 07:37:17;;;;;;;3.08;1.67;;;;;;;;;;5059849;28;20039;-77
2023/01/04 07:39:43;;;;;;;3.47;1.58;;;;;;;;;;5060041;28;20039;-77
2023/01/04 07:42:10;;;;;;;3.65;1.90;;;;;;;;;;5054986;28;20021;-77
2023/01/04 07:44:35;;;;;;;4.22;1.95;;;;;;;;;;5059837;28;20060;-77
2023/01/04 07:47:01;;;;;;;3.25;1.63;;;;;;;;;;5051549;28;20182;-76
2023/01/04 07:49:26;;;;;;;3.03;1.65;;;;;;;;;;5063974;28;20534;-77
2023/01/04 07:51:52;;;;;;;3.38;2.15;;;;;;;;;;5066589;28;20020;-77
2023/01/04 07:54:18;;;;;;;2.80;1.58;;;;;;;;;;5062879;28;20361;-77
2023/01/04 07:56:45;;;;;;;4.63;1.80;;;;;;;;;;5066991;28;20055;-77
2023/01/04 07:59:12;;;;;;;1.80;1.40;;;;;;;;;;5066178;28;20039;-76
2023/01/04 08:01:38;;;;;;;3.05;1.75;;;;;;;;;;5059503;28;20024;-77
2023/01/04 08:04:05;;;;;;;4.13;1.70;;;;;;;;;;5080879;28;20032;-77
2023/01/04 08:06:30;;;;;;;3.45;2.00;;;;;;;;;;5062890;28;20119;-76
2023/01/04 08:08:57;;;;;;;3.50;1.85;;;;;;;;;;5062055;28;20165;-77
2023/01/04 08:11:23;;;;;;;5.15;1.98;;;;;;;;;;5061529;28;20017;-77
2023/01/04 08:13:49;;;;;;;3.08;1.90;;;;;;;;;;5058250;28;20051;-77
2023/01/04 08:16:23;;;;;;;2.90;1.50;;;;;;;;;;5065325;28;20024;-77
2023/01/04 08:18:56;;;;;;;2.45;1.70;;;;;;;;;;5060838;28;20117;-77
2023/01/04 08:21:22;;;;;;;2.57;1.70;;;;;;;;;;5065190;28;20036;-77
2023/01/04 08:23:47;;;;;;;3.08;1.55;;;;;;;;;;5067495;28;20081;-77
2023/01/04 08:26:14;;;;;;;2.25;1.60;;;;;;;;;;5064183;28;20111;-77
2023/01/04 08:28:40;;;;;;;3.53;1.48;;;;;;;;;;5060891;28;20028;-76
2023/01/04 08:31:09;;;;;;;3.10;1.60;;;;;;;;;;5063188;28;20423;-77
2023/01/04 08:33:37;;;;;;;2.55;1.52;;;;;;;;;;5068326;28;20376;-76
2023/01/04 08:36:26;;;;;;;2.00;1.40;;;;;;;;;;5069335;28;20028;-77
2023/01/04 08:38:57;;;;;;;2.35;1.60;;;;;;;;;;5070992;28;20104;-77
2023/01/04 08:41:23;;;;;;;2.95;1.40;;;;;;;;;;5067825;28;20546;-77
2023/01/04 08:43:48;;;;;;;2.72;1.50;;;;;;;;;;5067672;28;20036;-76
2023/01/04 08:46:14;;;;;;;3.67;1.70;;;;;;;;;;5065352;28;20032;-76
2023/01/04 08:48:40;;;;;;;3.95;1.65;;;;;;;;;;5067244;28;20032;-77
2023/01/04 08:51:08;;;;;;;2.88;1.40;;;;;;;;;;5063289;28;20105;-77
2023/01/04 08:53:35;;;;;;;2.60;1.50;;;;;;;;;;5067590;28;20111;-77
2023/01/04 08:56:01;;;;;;;3.38;1.60;;;;;;;;;;5073291;28;20025;-77
2023/01/04 08:58:29;;;;;;;2.38;1.40;;;;;;;;;;5071760;28;20469;-77
2023/01/04 09:01:09;;;;;;;3.55;1.60;;;;;;;;;;5072190;28;20043;-77
2023/01/04 09:03:35;;;;;;;3.78;1.58;;;;;;;;;;5078445;28;20063;-77
2023/01/04 09:06:07;;;;;;;3.80;1.48;;;;;;;;;;5069494;28;20020;-77
2023/01/04 09:08:34;;;;;;;4.28;1.50;;;;;;;;;;5062586;28;20052;-77
2023/01/04 09:11:07;;;;;;;3.13;1.55;;;;;;;;;;5058873;28;20028;-77
2023/01/04 09:13:34;;;;;;;3.17;1.50;;;;;;;;;;5075525;28;20040;-77
2023/01/04 09:16:01;;;;;;;3.25;1.70;;;;;;;;;;5083225;28;20111;-77
2023/01/04 09:18:26;;;;;;;5.25;1.75;;;;;;;;;;5063934;28;20024;-77
2023/01/04 09:20:51;;;;;;;2.90;1.48;;;;;;;;;;5062026;28;20633;-77
2023/01/04 09:23:17;;;;;;;2.30;1.38;;;;;;;;;;5062423;28;20027;-77
2023/01/04 09:25:42;;;;;;;3.33;1.80;;;;;;;;;;5065251;28;20062;-77
2023/01/04 09:28:08;;;;;;;5.53;1.80;;;;;;;;;;5066403;28;20063;-77
2023/01/04 09:30:34;;;;;;;3.38;1.67;;;;;;;;;;5058029;28;20052;-77
2023/01/04 09:32:59;;;;;;;3.97;1.77;;;;;;;;;;5068372;28;20029;-77
2023/01/04 09:35:24;;;;;;;3.15;1.52;;;;;;;;;;5059967;28;20036;-76
2023/01/04 09:37:50;;;;;;;2.78;1.50;;;;;;;;;;5070565;28;20028;-77
2023/01/04 09:40:22;;;;;;;4.20;1.40;;;;;;;;;;5064296;28;20028;-76
2023/01/04 09:42:49;;;;;;;2.10;1.20;;;;;;;;;;5072271;28;20059;-77
2023/01/04 09:45:21;;;;;;;2.92;1.42;;;;;;;;;;5071601;28;20352;-77
2023/01/04 09:48:18;;;;;;;4.20;1.58;;;;;;;;;;5071479;28;20478;-76
2023/01/04 09:51:15;;;;;;;3.80;1.30;;;;;;;;;;5071387;28;20036;-77
2023/01/04 09:53:46;;;;;;;2.33;1.40;;;;;;;;;;5069095;28;20040;-77
2023/01/04 09:56:21;;;;;;;2.92;1.38;;;;;;;;;;5068789;28;20364;-77
2023/01/04 09:58:47;;;;;;;2.58;1.40;;;;;;;;;;5075260;28;20513;-77
2023/01/04 10:01:24;;;;;;;2.22;1.40;;;;;;;;;;5069622;28;20123;-77
2023/01/04 10:04:04;;;;;;;3.78;1.40;;;;;;;;;;5068628;28;20035;-77
2023/01/04 10:06:31;;;;;;;1.83;1.15;;;;;;;;;;5069937;28;20024;-77
2023/01/04 10:09:01;;;;;;;3.72;1.45;;;;;;;;;;5073521;28;20450;-77
2023/01/04 10:11:42;;;;;;;2.47;1.35;;;;;;;;;;5068181;28;20460;-77
2023/01/04 10:14:19;;;;;;;2.83;1.45;;;;;;;;;;5065799;28;20173;-76
2023/01/04 10:17:11;;;;;;;3.72;1.67;;;;;;;;;;5069989;28;20028;-77
2023/01/04 10:19:36;;;;;;;3.00;1.30;;;;;;;;;;5068495;28;20078;-77
2023/01/04 10:22:46;;;;;;;4.78;1.45;;;;;;;;;;5063691;28;20116;-77
2023/01/04 10:25:26;;;;;;;3.30;1.48;;;;;;;;;;5072705;28;20036;-77
2023/01/04 10:28:10;;;;;;;2.38;1.50;;;;;;;;;;5067472;28;20040;-76
2023/01/04 10:30:55;;;;;;;4.32;1.73;;;;;;;;;;5067452;28;20562;-77
2023/01/04 10:33:46;;;;;;;4.65;1.40;;;;;;;;;;5056269;28;20028;-76
2023/01/04 10:36:27;;;;;;;4.35;1.10;;;;;;;;;;5061025;28;20044;-76
2023/01/04 10:39:17;;;;;;;2.58;1.38;;;;;;;;;;5061297;28;20060;-76
2023/01/04 10:41:53;;;;;;;2.30;1.30;;;;;;;;;;5056388;28;20158;-77
2023/01/04 10:44:27;;;;;;;2.42;1.25;;;;;;;;;;5058296;28;20040;-76
2023/01/04 10:47:04;;;;;;;2.13;1.20;;;;;;;;;;5056497;28;20032;-77
2023/01/04 10:49:42;;;;;;;3.13;1.13;;;;;;;;;;5061206;28;20035;-77
2023/01/04 10:52:26;;;;;;;2.53;1.10;;;;;;;;;;5057867;28;20024;-77
2023/01/04 10:55:40;;;;;;;2.33;1.17;;;;;;;;;;5060246;28;20013;-77
2023/01/04 10:58:37;;;;;;;2.08;1.30;;;;;;;;;;5066345;28;20044;-77
2023/01/04 11:01:30;;;;;;;2.20;1.13;;;;;;;;;;5061640;28;20129;-77
2023/01/04 11:04:16;;;;;;;1.90;1.23;;;;;;;;;;5053046;28;20044;-77
2023/01/04 11:07:10;;;;;;;2.63;1.15;;;;;;;;;;5064318;28;20083;-77
2023/01/04 11:09:40;;;;;;;1.52;0.93;;;;;;;;;;5065639;28;20036;-77
2023/01/04 11:12:09;;;;;;;1.92;1.20;;;;;;;;;;5063708;28;20835;-77
2023/01/04 11:14:35;;;;;;;2.75;1.30;;;;;;;;;;5058159;28;20556;-77
2023/01/04 11:17:04;;;;;;;1.50;1.13;;;;;;;;;;5059484;28;20035;-77
2023/01/04 11:19:31;;;;;;;1.55;1.10;;;;;;;;;;5057510;28;20032;-77
2023/01/04 11:22:08;;;;;;;2.03;1.00;;;;;;;;;;5055811;28;20714;-77
2023/01/04 11:24:34;;;;;;;1.60;1.00;;;;;;;;;;5052197;28;20036;-77
2023/01/04 11:27:13;;;;;;;2.67;0.98;;;;;;;;;;5059988;28;20020;-77
2023/01/04 11:30:00;;;;;;;1.63;1.10;;;;;;;;;;5054034;28;20063;-77
2023/01/04 11:32:32;;;;;;;1.48;1.00;;;;;;;;;;5063911;28;20040;-77
2023/01/04 11:34:57;;;;;;;1.65;1.00;;;;;;;;;;5047518;28;20522;-77
2023/01/04 11:37:27;;;;;;;2.33;1.10;;;;;;;;;;5057901;28;20093;-77
2023/01/04 11:40:15;;;;;;;4.30;1.02;;;;;;;;;;5054593;28;20464;-77
2023/01/04 11:42:40;;;;;;;1.77;1.20;;;;;;;;;;5063798;28;20033;-77
2023/01/04 11:45:15;;;;;;;2.10;1.20;;;;;;;;;;5054005;28;20040;-77
2023/01/04 11:47:48;;;;;;;1.52;1.02;;;;;;;;;;5059933;28;20044;-77
2023/01/04 11:50:33;;;;;;;1.42;1.20;;;;;;;;;;5056310;28;20024;-77
2023/01/04 11:52:58;;;;;;;2.03;1.10;;;;;;;;;;5058279;28;20444;-77
2023/01/04 11:55:29;;;;;;;1.80;1.33;;;;;;;;;;5055545;28;20035;-77
2023/01/04 11:58:12;;;;;;;5.32;1.40;;;;;;;;;;5059998;28;20352;-77
2023/01/04 12:00:48;;;;;;;2.85;1.42;;;;;;;;;;5056236;28;20477;-77
2023/01/04 12:03:17;;;;;;;3.28;1.63;;;;;;;;;;5055501;28;20024;-77
2023/01/04 12:05:43;;;;;;;3.10;1.50;;;;;;;;;;5059265;28;20032;-77
2023/01/04 12:08:32;;;;;;;3.00;2.05;;;;;;;;;;5056638;28;20031;-77
2023/01/04 12:11:00;;;;;;;3.63;2.17;;;;;;;;;;5053349;28;20024;-77
2023/01/04 12:13:27;;;;;;;3.30;2.17;;;;;;;;;;5050310;28;20025;-77
2023/01/04 12:15:54;;;;;;;2.50;1.77;;;;;;;;;;5057233;28;20097;-77
2023/01/04 12:18:25;;;;;;;3.30;2.20;;;;;;;;;;5056851;28;20059;-77
2023/01/04 12:20:51;;;;;;;4.55;2.00;;;;;;;;;;5061850;28;20404;-77
2023/01/04 12:23:16;;;;;;;3.00;2.00;;;;;;;;;;5059056;28;20024;-77
2023/01/04 12:25:50;;;;;;;3.45;2.40;;;;;;;;;;5053289;28;20047;-77
2023/01/04 12:28:27;;;;;;;;;;;;;;;;;;5057706;28;20293;-77
2023/01/04 12:30:52;;;;;;;3.08;2.28;;;;;;;;;;5059131;28;19924;-77
2023/01/04 12:33:38;;;;;;;4.03;2.50;;;;;;;;;;5054419;28;20042;-77
2023/01/04 12:36:10;;;;;;;2.60;2.08;;;;;;;;;;5053086;28;20104;-77
2023/01/04 12:38:51;;;;;;;4.55;2.22;;;;;;;;;;5064446;28;20032;-77
2023/01/04 12:41:17;;;;;;;2.95;1.90;;;;;;;;;;5052943;28;20040;-77
2023/01/04 12:43:46;;;;;;;2.83;2.00;;;;;;;;;;5049496;28;20067;-77
2023/01/04 12:49:33;;;;;;;3.05;2.00;;;;;;;;;;5050451;28;20078;-77
2023/01/04 12:52:21;;;;;;;3.78;1.85;;;;;;;;;;5056479;28;20024;-77
2023/01/04 12:54:53;;;;;;;4.05;2.20;;;;;;;;;;5058473;28;20044;-77
2023/01/04 12:57:24;;;;;;;3.88;2.00;;;;;;;;;;5042910;28;20089;-77
2023/01/04 13:00:01;;;;;;;4.47;1.90;;;;;;;;;;5061075;28;20437;-77
2023/01/04 13:02:35;;;;;;;3.83;1.90;;;;;;;;;;5058604;28;20372;-77
2023/01/04 13:05:21;;;;;;;5.72;2.45;;;;;;;;;;5058375;28;20040;-77
2023/01/04 13:07:55;;;;;;;4.20;2.60;;;;;;;;;;5060096;28;20271;-77
2023/01/04 13:10:35;;;;;;;3.67;2.35;;;;;;;;;;5059152;28;20060;-77
2023/01/04 13:13:09;;;;;;;3.75;2.30;;;;;;;;;;5055977;28;20060;-77
2023/01/04 13:16:11;;;;;;;4.97;2.47;;;;;;;;;;5058450;28;20115;-77
2023/01/04 13:18:41;;;;;;;3.90;2.20;;;;;;;;;;5059964;28;20032;-77
2023/01/04 13:21:14;;;;;;;2.75;1.77;;;;;;;;;;5061877;28;20028;-77
2023/01/04 13:23:45;;;;;;;;;;;;;;;;;;5055212;28;20043;-77
2023/01/04 13:26:35;;;;;;;3.60;1.75;;;;;;;;;;5063149;28;20015;-77
2023/01/04 13:29:20;;;;;;;2.70;1.80;;;;;;;;;;5060403;28;20024;-77
2023/01/04 13:32:03;;;;;;;5.47;2.40;;;;;;;;;;5060152;28;20041;-77
2023/01/04 13:34:35;;;;;;;3.80;2.00;;;;;;;;;;5058285;28;20424;-77
2023/01/04 13:37:09;;;;;;;3.70;1.83;;;;;;;;;;5060560;28;20056;-77
2023/01/04 13:39:43;;;;;;;3.47;1.80;;;;;;;;;;5059304;28;20032;-77
2023/01/04 13:42:26;;;;;;;4.57;2.00;;;;;;;;;;5045903;28;20513;-77
2023/01/04 13:45:00;;;;;;;5.20;2.08;;;;;;;;;;5055166;28;20039;-77
2023/01/04 13:47:28;;;;;;;4.05;2.00;;;;;;;;;;5056009;28;20627;-77
2023/01/04 13:49:54;;;;;;;3.53;1.98;;;;;;;;;;5052226;28;20024;-77
2023/01/04 13:52:27;;;;;;;3.97;1.95;;;;;;;;;;5055762;28;20534;-77
2023/01/04 13:55:11;;;;;;;4.13;1.70;;;;;;;;;;5058142;28;20119;-77
2023/01/04 13:57:36;;;;;;;4.18;1.63;;;;;;;;;;5056259;28;20342;-77
2023/01/04 14:00:07;;;;;;;4.03;2.03;;;;;;;;;;5060311;28;20032;-77
2023/01/04 14:02:34;;;;;;;4.18;1.60;;;;;;;;;;5049178;28;20032;-77
2023/01/04 14:05:00;;;;;;;4.68;1.63;;;;;;;;;;5057996;28;20025;-77
2023/01/04 14:07:25;;;;;;;3.60;1.88;;;;;;;;;;5053232;28;20399;-77
2023/01/04 14:09:55;;;;;;;3.75;1.90;;;;;;;;;;5058659;28;20086;-77
2023/01/04 14:12:23;;;;;;;5.13;1.60;;;;;;;;;;5050746;28;20116;-77
2023/01/04 14:14:57;;;;;;;4.05;1.65;;;;;;;;;;5055039;28;20444;-76
2023/01/04 14:17:45;;;;;;;5.63;1.50;;;;;;;;;;5058880;28;20139;-77
2023/01/04 14:20:11;;;;;;;4.13;1.60;;;;;;;;;;5060358;28;20070;-77
2023/01/04 14:22:46;;;;;;;3.35;1.50;;;;;;;;;;5055397;28;20485;-78
2023/01/04 14:25:29;;;;;;;5.63;1.65;;;;;;;;;;5053628;28;20476;-77
2023/01/04 14:28:18;;;;;;;3.65;1.70;;;;;;;;;;5063012;28;20067;-77
2023/01/04 14:30:52;;;;;;;3.88;1.98;;;;;;;;;;5061796;28;20474;-77
2023/01/04 14:33:25;;;;;;;5.50;1.67;;;;;;;;;;5054450;28;20070;-77
2023/01/04 14:36:06;;;;;;;5.40;1.85;;;;;;;;;;5061250;28;20036;-77
2023/01/04 14:38:43;;;;;;;4.35;1.60;;;;;;;;;;5060016;28;20032;-77
2023/01/04 14:41:18;;;;;;;3.42;1.83;;;;;;;;;;5054742;28;20036;-77
2023/01/04 14:44:19;;;;;;;2.83;1.45;;;;;;;;;;5064531;28;20037;-77
2023/01/04 14:46:49;;;;;;;3.28;1.50;;;;;;;;;;5056827;28;20029;-77
2023/01/04 14:49:15;;;;;;;4.53;1.70;;;;;;;;;;5055890;28;20036;-77
2023/01/04 14:51:43;;;;;;;5.50;1.83;;;;;;;;;;5058873;28;20039;-77
2023/01/04 14:54:11;;;;;;;3.95;1.25;;;;;;;;;;5059706;28;20027;-77
2023/01/04 14:56:37;;;;;;;4.63;1.35;;;;;;;;;;5058342;28;20028;-77
2023/01/04 14:59:02;;;;;;;6.03;1.67;;;;;;;;;;5055051;28;20031;-77
2023/01/04 15:01:28;;;;;;;4.22;1.50;;;;;;;;;;5057952;28;20025;-77
2023/01/04 15:03:53;;;;;;;4.20;1.40;;;;;;;;;;5055154;28;20059;-77
2023/01/04 15:06:19;;;;;;;4.70;1.40;;;;;;;;;;5053610;28;20037;-77
2023/01/04 15:08:44;;;;;;;5.15;1.33;;;;;;;;;;5055308;28;20033;-77
2023/01/04 15:11:14;;;;;;;7.03;1.20;;;;;;;;;;5054968;28;20028;-77
2023/01/04 15:13:40;;;;;;;5.70;1.25;;;;;;;;;;5055867;28;20528;-77
2023/01/04 15:16:06;;;;;;;5.47;1.50;;;;;;;;;;5061513;28;20036;-77
2023/01/04 15:18:32;;;;;;;8.30;1.70;;;;;;;;;;5056111;28;20036;-77
2023/01/04 15:20:57;;;;;;;5.10;2.00;;;;;;;;;;5058856;28;20393;-77
2023/01/04 15:23:22;;;;;;;4.40;1.60;;;;;;;;;;5062207;28;20028;-77
2023/01/04 15:25:48;;;;;;;5.38;1.50;;;;;;;;;;5055069;28;20060;-77
2023/01/04 15:28:13;;;;;;;5.90;1.60;;;;;;;;;;5056076;28;20049;-77
2023/01/04 15:30:43;;;;;;;7.60;1.83;;;;;;;;;;5058090;28;20052;-77
2023/01/04 15:33:09;;;;;;;6.05;1.75;;;;;;;;;;5059256;28;20104;-77
2023/01/04 15:35:34;;;;;;;8.02;1.90;;;;;;;;;;5060441;28;20536;-77
2023/01/04 15:37:59;;;;;;;9.15;2.13;;;;;;;;;;5056403;28;20115;-77
2023/01/04 15:40:25;;;;;;;6.95;1.73;;;;;;;;;;5064266;28;20078;-77
2023/01/04 15:43:00;;;;;;;8.90;2.20;;;;;;;;;;5063321;28;20033;-77
2023/01/04 15:45:29;;;;;;;6.43;1.85;;;;;;;;;;5069758;28;20035;-77
2023/01/04 15:48:01;;;;;;;6.30;1.70;;;;;;;;;;5070790;28;20035;-77
2023/01/04 15:50:33;;;;;;;6.78;1.92;;;;;;;;;;5070940;28;20511;-77